createdAt,value
2023-05-05T00:01:33.522Z,11.38
2023-05-05T00:03:44.996Z,9.32
2023-05-05T00:05:50.315Z,13.85
2023-05-05T00:07:55.525Z,9.13
2023-05-05T00:10:01.651Z,7.78
2023-05-05T00:12:09.752Z,8.63
2023-05-05T00:14:15.312Z,9.18
2023-05-05T00:16:20.636Z,7.30
2023-05-05T00:18:26.941Z,8.32
2023-05-05T00:20:34.900Z,6.78
2023-05-05T00:22:39.836Z,8.95
2023-05-05T00:24:46.865Z,9.18
2023-05-05T00:26:52.275Z,7.78
2023-05-05T00:28:57.495Z,8.73
2023-05-05T00:31:02.848Z,6.93
2023-05-05T00:33:08.166Z,7.22
2023-05-05T00:35:13.514Z,8.40
2023-05-05T00:37:24.593Z,7.75
2023-05-05T00:39:29.888Z,6.60
2023-05-05T00:41:35.869Z,6.88
2023-05-05T00:43:42.947Z,6.97
2023-05-05T00:45:48.313Z,8.20
2023-05-05T00:47:57.413Z,6.93
2023-05-05T00:50:02.872Z,7.50
2023-05-05T00:52:09.192Z,7.10
2023-05-05T00:54:16.781Z,7.72
2023-05-05T00:56:27.605Z,9.10
2023-05-05T00:58:33.149Z,8.07
2023-05-05T01:00:38.502Z,7.20
2023-05-05T01:02:44.420Z,8.40
2023-05-05T01:04:49.614Z,7.15
2023-05-05T01:07:06.702Z,8.80
2023-05-05T01:09:23.189Z,9.77
2023-05-05T01:11:38.828Z,7.43
2023-05-05T01:13:53.341Z,7.40
2023-05-05T01:16:05.474Z,7.68
2023-05-05T01:18:21.513Z,6.85
2023-05-05T01:20:33.191Z,6.85
2023-05-05T01:22:44.719Z,6.22
2023-05-05T01:25:07.341Z,7.00
2023-05-05T01:27:40.490Z,7.45
2023-05-05T01:30:03.272Z,8.48
2023-05-05T01:32:13.866Z,7.32
2023-05-05T01:34:22.599Z,7.50
2023-05-05T01:36:34.275Z,7.53
2023-05-05T01:38:47.991Z,8.55
2023-05-05T01:40:56.478Z,8.90
2023-05-05T01:43:03.899Z,6.80
2023-05-05T01:45:12.818Z,6.60
2023-05-05T01:47:26.884Z,7.97
2023-05-05T01:49:34.247Z,8.10
2023-05-05T01:51:41.413Z,8.50
2023-05-05T01:53:47.487Z,9.13
2023-05-05T01:55:53.798Z,9.70
2023-05-05T01:58:04.135Z,8.30
2023-05-05T02:00:11.886Z,7.65
2023-05-05T02:02:22.661Z,8.98
2023-05-05T02:04:31.529Z,10.07
2023-05-05T02:06:41.046Z,10.32
2023-05-05T02:08:47.977Z,11.15
2023-05-05T02:10:53.773Z,12.75
2023-05-05T02:13:01.575Z,9.65
2023-05-05T02:15:08.148Z,10.38
2023-05-05T02:17:14.892Z,9.82
2023-05-05T02:19:25.706Z,8.95
2023-05-05T02:21:31.520Z,8.60
2023-05-05T02:23:39.913Z,9.30
2023-05-05T02:25:48.948Z,10.75
2023-05-05T02:28:01.181Z,10.18
2023-05-05T02:30:11.389Z,10.53
2023-05-05T02:32:22.195Z,10.68
2023-05-05T02:34:31.393Z,10.75
2023-05-05T02:36:43.393Z,15.85
2023-05-05T02:38:52.320Z,10.57
2023-05-05T02:41:01.780Z,13.38
2023-05-05T02:43:11.366Z,14.30
2023-05-05T02:45:20.942Z,10.85
2023-05-05T02:47:31.833Z,12.77
2023-05-05T02:49:42.961Z,14.32
2023-05-05T02:51:48.204Z,16.42
2023-05-05T02:53:53.664Z,13.60
2023-05-05T02:56:05.960Z,15.65
2023-05-05T02:58:19.121Z,18.75
2023-05-05T03:02:43.590Z,20.15
2023-05-05T03:04:55.693Z,15.48
2023-05-05T03:07:06.944Z,25.30
2023-05-05T03:09:16.286Z,21.35
2023-05-05T03:11:27.257Z,23.80
2023-05-05T03:13:34.083Z,26.05
2023-05-05T03:15:46.334Z,30.50
2023-05-05T03:17:54.679Z,30.73
2023-05-05T03:20:04.102Z,32.28
2023-05-05T03:22:09.569Z,36.90
2023-05-05T03:24:20.336Z,34.60
2023-05-05T03:26:26.491Z,39.47
2023-05-05T03:28:32.860Z,40.78
2023-05-05T03:30:39.426Z,41.25
2023-05-05T03:32:44.784Z,43.28
2023-05-05T03:34:50.061Z,48.13
2023-05-05T03:36:57.633Z,46.28
2023-05-05T03:39:02.880Z,48.00
2023-05-05T03:41:08.520Z,58.85
2023-05-05T03:43:14.133Z,49.90
2023-05-05T03:45:24.593Z,51.72
2023-05-05T03:47:29.848Z,52.63
2023-05-05T03:49:36.380Z,52.92
2023-05-05T03:51:44.598Z,51.15
2023-05-05T03:53:54.938Z,54.67
2023-05-05T03:56:00.286Z,54.47
2023-05-05T03:58:06.940Z,56.10
2023-05-05T04:00:16.373Z,60.10
2023-05-05T04:02:22.542Z,53.17
2023-05-05T04:04:28.010Z,57.10
2023-05-05T04:06:33.194Z,59.55
2023-05-05T04:08:38.530Z,60.70
2023-05-05T04:10:46.463Z,57.08
2023-05-05T04:12:51.711Z,51.22
2023-05-05T04:14:59.570Z,48.22
2023-05-05T04:17:06.794Z,47.88
2023-05-05T04:19:13.389Z,44.65
2023-05-05T04:21:20.356Z,46.70
2023-05-05T04:23:25.557Z,45.15
2023-05-05T04:25:31.553Z,35.35
2023-05-05T04:27:39.589Z,43.83
2023-05-05T04:29:44.605Z,37.80
2023-05-05T04:31:50.216Z,39.63
2023-05-05T04:33:55.496Z,37.53
2023-05-05T04:36:01.552Z,37.03
2023-05-05T04:38:06.849Z,41.72
2023-05-05T04:40:13.405Z,33.13
2023-05-05T04:42:19.030Z,35.33
2023-05-05T04:44:27.269Z,35.38
2023-05-05T04:46:35.034Z,33.50
2023-05-05T04:48:40.446Z,37.78
2023-05-05T04:50:45.703Z,31.75
2023-05-05T04:52:52.539Z,34.13
2023-05-05T04:54:58.442Z,34.67
2023-05-05T04:57:04.397Z,32.33
2023-05-05T04:59:09.626Z,34.78
2023-05-05T05:01:17.466Z,32.45
2023-05-05T05:03:22.542Z,32.58
2023-05-05T05:05:27.703Z,32.65
2023-05-05T05:07:33.077Z,35.58
2023-05-05T05:09:38.673Z,32.28
2023-05-05T05:11:43.820Z,29.38
2023-05-05T05:13:49.256Z,31.70
2023-05-05T05:15:57.738Z,28.15
2023-05-05T05:18:06.285Z,32.33
2023-05-05T05:20:12.290Z,31.95
2023-05-05T05:22:17.683Z,33.90
2023-05-05T05:24:23.312Z,33.20
2023-05-05T05:26:28.758Z,32.83
2023-05-05T05:28:34.042Z,35.05
2023-05-05T05:30:39.333Z,32.55
2023-05-05T05:32:44.311Z,33.05
2023-05-05T05:34:52.088Z,32.22
2023-05-05T05:36:57.194Z,32.65
2023-05-05T05:39:03.059Z,35.80
2023-05-05T05:41:14.552Z,31.85
2023-05-05T05:43:19.931Z,34.28
2023-05-05T05:45:25.016Z,36.88
2023-05-05T05:47:30.182Z,33.50
2023-05-05T05:49:36.913Z,38.20
2023-05-05T05:51:44.749Z,33.78
2023-05-05T05:53:49.973Z,33.22
2023-05-05T05:55:55.182Z,38.42
2023-05-05T05:58:01.298Z,36.97
2023-05-05T06:00:07.406Z,35.28
2023-05-05T06:02:12.712Z,34.22
2023-05-05T06:04:17.959Z,29.63
2023-05-05T06:06:23.371Z,37.67
2023-05-05T06:08:31.411Z,35.28
2023-05-05T06:10:37.105Z,38.22
2023-05-05T06:12:42.323Z,35.40
2023-05-05T06:14:47.680Z,38.60
2023-05-05T06:16:55.537Z,34.10
2023-05-05T06:19:01.246Z,45.58
2023-05-05T06:21:06.444Z,37.85
2023-05-05T06:23:11.587Z,32.88
2023-05-05T06:25:19.974Z,42.38
2023-05-05T06:27:25.044Z,39.65
2023-05-05T06:29:30.258Z,36.88
2023-05-05T06:31:38.602Z,35.47
2023-05-05T06:33:43.779Z,34.53
2023-05-05T06:35:49.777Z,36.92
2023-05-05T06:37:55.079Z,35.10
2023-05-05T06:40:00.241Z,35.58
2023-05-05T06:42:13.797Z,33.33
2023-05-05T06:44:19.146Z,38.15
2023-05-05T06:46:24.400Z,37.03
2023-05-05T06:48:29.805Z,39.85
2023-05-05T06:50:37.948Z,34.67
2023-05-05T06:52:43.028Z,31.67
2023-05-05T06:54:48.072Z,33.97
2023-05-05T06:56:53.830Z,34.50
2023-05-05T06:59:01.816Z,31.55
2023-05-05T07:01:07.336Z,28.27
2023-05-05T07:03:12.810Z,26.17
2023-05-05T07:05:17.962Z,23.92
2023-05-05T07:07:23.667Z,24.88
2023-05-05T07:09:31.669Z,25.13
2023-05-05T07:11:38.507Z,22.55
2023-05-05T07:13:43.713Z,24.40
2023-05-05T07:15:51.592Z,22.75
2023-05-05T07:17:57.389Z,20.77
2023-05-05T07:20:03.833Z,20.80
2023-05-05T07:22:09.075Z,18.98
2023-05-05T07:24:14.295Z,21.63
2023-05-05T07:26:19.733Z,24.05
2023-05-05T07:28:25.265Z,20.85
2023-05-05T07:30:31.343Z,22.23
2023-05-05T07:32:39.672Z,20.05
2023-05-05T07:34:45.007Z,24.70
2023-05-05T07:36:50.386Z,20.00
2023-05-05T07:38:55.830Z,21.90
2023-05-05T07:41:01.387Z,26.10
2023-05-05T07:43:07.068Z,19.67
2023-05-05T07:45:12.885Z,17.73
2023-05-05T07:47:18.285Z,17.08
2023-05-05T07:49:27.154Z,17.80
2023-05-05T07:51:34.500Z,19.77
2023-05-05T07:53:40.423Z,24.70
2023-05-05T07:55:45.847Z,21.75
2023-05-05T07:57:51.282Z,21.30
2023-05-05T07:59:57.022Z,21.63
2023-05-05T08:02:02.691Z,19.00
2023-05-05T08:04:08.618Z,23.63
2023-05-05T08:06:22.394Z,20.35
2023-05-05T08:08:27.846Z,17.10
2023-05-05T08:10:34.005Z,14.95
2023-05-05T08:12:39.754Z,21.13
2023-05-05T08:14:45.670Z,14.40
2023-05-05T08:16:51.218Z,14.02
2023-05-05T08:18:56.666Z,19.27
2023-05-05T08:21:02.389Z,12.40
2023-05-05T08:23:10.132Z,12.57
2023-05-05T08:25:16.216Z,16.08
2023-05-05T08:27:27.519Z,10.90
2023-05-05T08:29:33.086Z,13.48
2023-05-05T08:31:39.977Z,13.13
2023-05-05T08:33:45.512Z,11.75
2023-05-05T08:35:52.362Z,12.60
2023-05-05T08:37:59.131Z,9.80
2023-05-05T08:40:09.236Z,13.07
2023-05-05T08:42:25.455Z,12.25
2023-05-05T08:44:38.289Z,13.23
2023-05-05T08:46:45.978Z,12.18
2023-05-05T08:48:52.046Z,11.88
2023-05-05T08:51:03.325Z,9.65
2023-05-05T08:55:27.827Z,9.40
2023-05-05T08:57:42.785Z,11.73
2023-05-05T08:59:48.227Z,8.60
2023-05-05T09:01:54.711Z,6.57
2023-05-05T09:04:02.280Z,8.73
2023-05-05T09:06:08.072Z,7.15
2023-05-05T09:08:14.014Z,7.68
2023-05-05T09:10:19.248Z,10.48
2023-05-05T09:12:26.915Z,8.07
2023-05-05T09:14:32.878Z,7.57
2023-05-05T09:16:38.709Z,9.05
2023-05-05T09:18:45.735Z,6.32
2023-05-05T09:20:50.767Z,4.20
2023-05-05T09:22:58.461Z,5.43
2023-05-05T09:25:03.649Z,8.15
2023-05-05T09:27:27.205Z,11.20
2023-05-05T09:29:32.968Z,6.05
2023-05-05T09:31:39.416Z,7.38
2023-05-05T09:33:44.557Z,8.00
2023-05-05T09:35:54.401Z,6.55
2023-05-05T09:38:00.126Z,4.63
2023-05-05T09:40:05.545Z,10.52
2023-05-05T09:42:20.842Z,4.72
2023-05-05T09:44:40.330Z,8.27
2023-05-05T09:46:55.449Z,4.72
2023-05-05T09:49:14.411Z,5.25
2023-05-05T09:51:19.428Z,5.68
2023-05-05T09:53:24.649Z,8.10
2023-05-05T09:55:29.602Z,7.15
2023-05-05T09:57:37.059Z,6.32
2023-05-05T09:59:57.904Z,6.07
2023-05-05T10:02:14.983Z,7.15
2023-05-05T10:04:31.360Z,9.15
2023-05-05T10:06:47.649Z,8.50
2023-05-05T10:09:04.253Z,6.30
2023-05-05T10:11:09.667Z,6.97
2023-05-05T10:13:14.716Z,6.70
2023-05-05T10:15:22.752Z,11.38
2023-05-05T10:17:31.826Z,12.30
2023-05-05T10:19:39.035Z,10.77
2023-05-05T10:21:48.941Z,11.43
2023-05-05T10:24:01.477Z,9.82
2023-05-05T10:26:10.816Z,9.70
2023-05-05T10:28:23.441Z,14.25
2023-05-05T10:30:33.763Z,10.63
2023-05-05T10:32:59.874Z,10.38
2023-05-05T10:35:12.812Z,10.57
2023-05-05T10:37:19.905Z,12.32
2023-05-05T10:39:26.720Z,13.43
2023-05-05T10:41:32.948Z,16.52
2023-05-05T10:43:40.549Z,17.20
2023-05-05T10:45:48.863Z,15.00
2023-05-05T10:47:55.263Z,14.65
2023-05-05T10:50:07.248Z,14.93
2023-05-05T10:52:23.932Z,13.10
2023-05-05T10:54:37.159Z,18.00
2023-05-05T10:56:45.227Z,15.25
2023-05-05T10:58:59.595Z,14.77
2023-05-05T11:01:09.674Z,11.38
2023-05-05T11:03:25.264Z,11.82
2023-05-05T11:05:31.268Z,11.75
2023-05-05T11:07:38.395Z,14.75
2023-05-05T11:09:58.115Z,15.25
2023-05-05T11:12:10.819Z,15.93
2023-05-05T11:14:24.965Z,20.70
2023-05-05T11:16:50.782Z,15.98
2023-05-05T11:18:56.533Z,15.07
2023-05-05T11:21:18.768Z,17.70
2023-05-05T11:23:27.087Z,14.10
2023-05-05T11:25:51.645Z,17.05
2023-05-05T11:28:09.039Z,13.65
2023-05-05T11:30:15.696Z,13.85
2023-05-05T11:32:23.376Z,13.38
2023-05-05T11:34:31.365Z,15.85
2023-05-05T11:36:46.513Z,14.65
2023-05-05T11:39:10.154Z,15.73
2023-05-05T11:41:16.877Z,15.45
2023-05-05T11:43:22.322Z,12.57
2023-05-05T11:45:27.677Z,15.70
2023-05-05T11:47:38.214Z,11.95
2023-05-05T11:49:43.516Z,16.63
2023-05-05T11:51:59.270Z,12.85
2023-05-05T11:54:04.181Z,10.77
2023-05-05T11:56:13.073Z,16.23
2023-05-05T11:58:24.880Z,9.75
2023-05-05T12:00:36.905Z,11.52
2023-05-05T12:02:44.573Z,8.93
2023-05-05T12:04:50.032Z,11.77
2023-05-05T12:06:55.570Z,11.80
2023-05-05T12:09:01.415Z,15.15
2023-05-05T12:11:07.058Z,15.02
2023-05-05T12:13:21.535Z,12.30
2023-05-05T12:15:34.027Z,16.48
2023-05-05T12:17:48.503Z,13.20
2023-05-05T12:19:55.989Z,15.68
2023-05-05T12:22:01.394Z,15.07
2023-05-05T12:24:06.537Z,13.48
2023-05-05T12:26:26.832Z,10.75
2023-05-05T12:28:46.793Z,16.15
2023-05-05T12:30:59.782Z,13.77
2023-05-05T12:33:08.814Z,11.23
2023-05-05T12:35:16.303Z,11.63
2023-05-05T12:37:22.147Z,11.32
2023-05-05T12:39:37.185Z,12.50
2023-05-05T12:41:42.413Z,11.90
2023-05-05T12:43:47.728Z,9.02
2023-05-05T12:46:02.940Z,6.97
2023-05-05T12:48:31.731Z,11.73
2023-05-05T12:50:38.013Z,7.50
2023-05-05T12:52:45.441Z,11.15
2023-05-05T12:54:57.774Z,13.02
2023-05-05T12:57:14.412Z,10.10
2023-05-05T12:59:33.134Z,10.45
2023-05-05T13:01:39.377Z,10.25
2023-05-05T13:03:46.974Z,11.88
2023-05-05T13:05:52.193Z,11.38
2023-05-05T13:07:57.598Z,11.77
2023-05-05T13:10:11.153Z,10.50
2023-05-05T13:12:16.689Z,9.15
2023-05-05T13:14:23.300Z,13.38
2023-05-05T13:16:28.693Z,14.57
2023-05-05T13:18:33.478Z,10.13
2023-05-05T13:20:44.139Z,11.07
2023-05-05T13:22:49.005Z,14.35
2023-05-05T13:24:53.877Z,10.52
2023-05-05T13:26:58.920Z,13.57
2023-05-05T13:29:03.999Z,13.68
2023-05-05T13:31:09.631Z,10.70
2023-05-05T13:33:14.506Z,13.68
2023-05-05T13:35:19.435Z,11.57
2023-05-05T13:37:27.236Z,12.00
2023-05-05T13:39:32.909Z,11.82
2023-05-05T13:41:40.523Z,10.23
2023-05-05T13:43:45.345Z,9.65
2023-05-05T13:45:50.580Z,8.63
2023-05-05T13:47:55.529Z,10.75
2023-05-05T13:50:01.590Z,9.50
2023-05-05T13:52:07.148Z,9.27
2023-05-05T13:54:14.717Z,9.02
2023-05-05T13:56:20.162Z,8.93
2023-05-05T13:58:25.207Z,13.68
2023-05-05T14:00:31.364Z,7.65
2023-05-05T14:02:36.473Z,9.10
2023-05-05T14:04:44.334Z,9.00
2023-05-05T14:06:49.274Z,10.43
2023-05-05T14:08:54.533Z,9.38
2023-05-05T14:11:03.716Z,7.75
2023-05-05T14:13:08.638Z,7.55
2023-05-05T14:15:14.074Z,11.50
2023-05-05T14:17:18.918Z,8.82
2023-05-05T14:19:23.919Z,8.10
2023-05-05T14:21:29.003Z,7.00
2023-05-05T14:23:34.037Z,9.00
2023-05-05T14:25:38.818Z,8.30
2023-05-05T14:27:46.290Z,9.00
2023-05-05T14:29:51.272Z,7.43
2023-05-05T14:31:56.288Z,12.10
2023-05-05T14:34:01.669Z,7.05
2023-05-05T14:36:07.139Z,8.40
2023-05-05T14:38:12.204Z,9.13
2023-05-05T14:40:17.197Z,10.70
2023-05-05T14:42:22.342Z,10.32
2023-05-05T14:44:29.886Z,8.73
2023-05-05T14:46:36.690Z,12.68
2023-05-05T14:48:42.242Z,10.88
2023-05-05T14:50:47.241Z,11.35
2023-05-05T14:52:52.278Z,9.10
2023-05-05T14:54:57.621Z,11.43
2023-05-05T14:57:02.786Z,11.52
2023-05-05T14:59:08.243Z,12.00
2023-05-05T15:01:18.727Z,13.20
2023-05-05T15:03:23.987Z,12.23
2023-05-05T15:05:29.144Z,11.73
2023-05-05T15:07:34.156Z,11.15
2023-05-05T15:09:39.179Z,14.02
2023-05-05T15:11:45.484Z,9.38
2023-05-05T15:13:50.382Z,13.15
2023-05-05T15:15:55.542Z,10.05
2023-05-05T15:18:03.326Z,11.38
2023-05-05T15:20:10.414Z,12.07
2023-05-05T15:22:15.491Z,11.45
2023-05-05T15:24:20.460Z,13.18
2023-05-05T15:26:26.105Z,12.13
2023-05-05T15:28:31.848Z,13.57
2023-05-05T15:30:37.317Z,11.27
2023-05-05T15:32:42.873Z,11.13
2023-05-05T15:34:50.716Z,10.30
2023-05-05T15:36:56.393Z,10.82
2023-05-05T15:39:01.583Z,11.05
2023-05-05T15:41:06.901Z,16.45
2023-05-05T15:43:12.328Z,15.82
2023-05-05T15:45:17.618Z,15.88
2023-05-05T15:47:22.708Z,24.20
2023-05-05T15:49:31.461Z,18.35
2023-05-05T15:51:39.430Z,19.65
2023-05-05T15:53:44.534Z,17.45
2023-05-05T15:55:49.552Z,15.20
2023-05-05T15:57:54.916Z,19.13
2023-05-05T15:59:59.949Z,15.90
2023-05-05T16:02:06.093Z,17.80
2023-05-05T16:04:11.915Z,17.15
2023-05-05T16:06:17.010Z,15.20
2023-05-05T16:08:28.080Z,20.52
2023-05-05T16:10:33.094Z,19.15
2023-05-05T16:12:38.704Z,19.52
2023-05-05T16:14:44.709Z,20.80
2023-05-05T16:16:49.975Z,18.30
2023-05-05T16:18:55.201Z,16.05
2023-05-05T16:21:01.210Z,22.38
2023-05-05T16:23:06.256Z,20.77
2023-05-05T16:25:17.755Z,18.48
2023-05-05T16:27:23.506Z,30.05
2023-05-05T16:29:32.263Z,20.33
2023-05-05T16:31:40.593Z,21.45
2023-05-05T16:33:46.144Z,17.00
2023-05-05T16:35:51.249Z,16.17
2023-05-05T16:37:56.975Z,16.75
2023-05-05T16:40:04.554Z,17.33
2023-05-05T16:44:21.054Z,18.20
2023-05-05T16:46:29.249Z,17.85
2023-05-05T16:48:35.440Z,17.42
2023-05-05T16:50:40.953Z,16.35
2023-05-05T16:52:46.349Z,16.27
2023-05-05T16:54:55.827Z,19.55
2023-05-05T16:57:03.349Z,16.83
2023-05-05T16:59:15.922Z,18.30
2023-05-05T17:01:21.054Z,17.70
2023-05-05T17:03:26.761Z,19.63
2023-05-05T17:05:33.200Z,15.75
2023-05-05T17:07:40.959Z,19.67
2023-05-05T17:09:46.158Z,19.98
2023-05-05T17:11:53.306Z,22.85
2023-05-05T17:13:58.353Z,21.30
2023-05-05T17:16:08.784Z,17.70
2023-05-05T17:18:13.756Z,18.55
2023-05-05T17:20:18.957Z,15.23
2023-05-05T17:22:24.117Z,15.88
2023-05-05T17:24:29.214Z,14.82
2023-05-05T17:26:34.667Z,13.73
2023-05-05T17:28:39.726Z,14.00
2023-05-05T17:30:44.938Z,13.95
2023-05-05T17:32:53.294Z,16.75
2023-05-05T17:34:59.132Z,17.63
2023-05-05T17:37:04.183Z,12.90
2023-05-05T17:39:10.803Z,13.85
2023-05-05T17:41:16.891Z,13.23
2023-05-05T17:43:22.290Z,15.95
2023-05-05T17:45:27.237Z,13.85
2023-05-05T17:47:33.403Z,17.70
2023-05-05T17:49:44.450Z,14.05
2023-05-05T17:51:49.806Z,14.85
2023-05-05T17:53:54.953Z,13.50
2023-05-05T17:55:59.986Z,16.52
2023-05-05T17:58:05.736Z,15.65
2023-05-05T18:00:12.829Z,13.57
2023-05-05T18:02:19.338Z,15.15
2023-05-05T18:04:25.956Z,15.00
2023-05-05T18:06:33.823Z,16.42
2023-05-05T18:08:38.958Z,15.63
2023-05-05T18:10:44.206Z,14.68
2023-05-05T18:12:49.231Z,14.48
2023-05-05T18:14:54.527Z,13.98
2023-05-05T18:16:59.508Z,16.85
2023-05-05T18:19:04.747Z,18.10
2023-05-05T18:21:12.420Z,16.70
2023-05-05T18:23:20.146Z,16.33
2023-05-05T18:25:28.244Z,12.73
2023-05-05T18:27:36.389Z,13.13
2023-05-05T18:29:44.442Z,16.92
2023-05-05T18:31:53.419Z,13.60
2023-05-05T18:33:58.744Z,15.35
2023-05-05T18:36:06.202Z,15.00
2023-05-05T18:38:13.225Z,14.85
2023-05-05T18:40:21.829Z,14.57
2023-05-05T18:42:27.135Z,16.98
2023-05-05T18:44:32.997Z,16.80
2023-05-05T18:46:40.307Z,16.45
2023-05-05T18:48:45.631Z,15.57
2023-05-05T18:50:51.741Z,14.88
2023-05-05T18:52:56.710Z,15.05
2023-05-05T18:55:03.154Z,15.90
2023-05-05T18:57:10.850Z,16.73
2023-05-05T18:59:15.662Z,15.65
2023-05-05T19:01:20.556Z,18.80
2023-05-05T19:03:25.960Z,13.77
2023-05-05T19:05:31.628Z,14.75
2023-05-05T19:07:37.040Z,15.48
2023-05-05T19:09:42.066Z,17.25
2023-05-05T19:11:47.136Z,14.75
2023-05-05T19:13:54.722Z,14.52
2023-05-05T19:15:59.779Z,17.77
2023-05-05T19:18:06.593Z,15.25
2023-05-05T19:20:13.268Z,12.70
2023-05-05T19:22:20.952Z,16.90
2023-05-05T19:24:35.793Z,19.65
2023-05-05T19:26:44.423Z,13.02
2023-05-05T19:28:49.337Z,14.88
2023-05-05T19:30:56.838Z,16.55
2023-05-05T19:33:02.814Z,15.02
2023-05-05T19:35:10.779Z,14.13
2023-05-05T19:37:16.119Z,14.35
2023-05-05T19:39:21.302Z,20.02
2023-05-05T19:41:26.490Z,15.60
2023-05-05T19:43:31.661Z,14.38
2023-05-05T19:45:37.094Z,17.85
2023-05-05T19:47:44.691Z,16.85
2023-05-05T19:49:49.793Z,19.23
2023-05-05T19:51:54.964Z,17.33
2023-05-05T19:53:59.852Z,20.25
2023-05-05T19:56:05.847Z,18.85
2023-05-05T19:58:10.981Z,18.00
2023-05-05T20:00:18.704Z,16.23
2023-05-05T20:02:26.833Z,16.65
2023-05-05T20:04:35.683Z,20.55
2023-05-05T20:06:43.691Z,18.33
2023-05-05T20:08:48.705Z,21.40
2023-05-05T20:10:53.710Z,18.45
2023-05-05T20:12:58.746Z,18.00
2023-05-05T20:15:03.664Z,19.33
2023-05-05T20:17:09.019Z,18.90
2023-05-05T20:19:14.060Z,17.65
2023-05-05T20:21:23.190Z,17.20
2023-05-05T20:23:28.211Z,20.95
2023-05-05T20:25:33.749Z,20.13
2023-05-05T20:27:38.758Z,20.90
2023-05-05T20:29:43.616Z,22.25
2023-05-05T20:31:48.680Z,19.55
2023-05-05T20:33:53.559Z,18.00
2023-05-05T20:35:58.699Z,18.38
2023-05-05T20:38:07.317Z,22.20
2023-05-05T20:40:13.523Z,20.25
2023-05-05T20:42:19.024Z,24.30
2023-05-05T20:44:24.112Z,20.67
2023-05-05T20:46:29.277Z,19.33
2023-05-05T20:48:34.353Z,21.17
2023-05-05T20:50:42.982Z,23.20
2023-05-05T20:52:48.294Z,20.23
2023-05-05T20:54:56.475Z,18.77
2023-05-05T20:57:02.426Z,22.33
2023-05-05T20:59:07.693Z,21.48
2023-05-05T21:01:12.742Z,18.75
2023-05-05T21:03:17.891Z,23.40
2023-05-05T21:05:23.333Z,21.92
2023-05-05T21:07:31.402Z,23.15
2023-05-05T21:09:40.383Z,20.45
2023-05-05T21:11:47.885Z,24.67
2023-05-05T21:13:55.488Z,21.65
2023-05-05T21:16:03.700Z,24.23
2023-05-05T21:18:09.868Z,22.05
2023-05-05T21:20:16.662Z,23.42
2023-05-05T21:22:22.038Z,21.23
2023-05-05T21:24:28.269Z,23.27
2023-05-05T21:26:34.175Z,24.40
2023-05-05T21:28:41.861Z,25.05
2023-05-05T21:30:54.809Z,24.52
2023-05-05T21:33:10.008Z,25.27
2023-05-05T21:35:15.016Z,25.38
2023-05-05T21:37:19.931Z,27.77
2023-05-05T21:39:24.941Z,24.33
2023-05-05T21:41:30.272Z,27.70
2023-05-05T21:43:35.261Z,27.83
2023-05-05T21:45:42.919Z,26.23
2023-05-05T21:47:47.948Z,28.35
2023-05-05T21:49:54.825Z,29.35
2023-05-05T21:51:59.714Z,31.13
2023-05-05T21:54:04.731Z,32.28
2023-05-05T21:56:10.458Z,29.27
2023-05-05T21:58:15.593Z,32.97
2023-05-05T22:00:20.667Z,29.17
2023-05-05T22:02:28.458Z,30.77
2023-05-05T22:04:34.374Z,32.75
2023-05-05T22:06:39.420Z,31.77
2023-05-05T22:08:45.012Z,29.38
2023-05-05T22:10:49.936Z,27.70
2023-05-05T22:12:55.038Z,29.98
2023-05-05T22:15:00.153Z,30.13
2023-05-05T22:17:05.073Z,33.00
2023-05-05T22:19:12.782Z,34.15
2023-05-05T22:21:17.659Z,31.02
2023-05-05T22:23:22.492Z,32.47
2023-05-05T22:25:27.374Z,33.92
2023-05-05T22:27:32.187Z,32.63
2023-05-05T22:29:38.218Z,34.17
2023-05-05T22:31:43.218Z,41.38
2023-05-05T22:33:48.131Z,38.20
2023-05-05T22:35:55.620Z,38.25
2023-05-05T22:38:01.657Z,34.13
2023-05-05T22:40:09.854Z,37.42
2023-05-05T22:42:15.223Z,36.72
2023-05-05T22:44:20.224Z,34.88
2023-05-05T22:46:25.818Z,35.15
2023-05-05T22:48:31.660Z,34.78
2023-05-05T22:50:36.717Z,36.38
2023-05-05T22:52:46.514Z,32.22
2023-05-05T22:54:52.058Z,36.40
2023-05-05T22:56:57.019Z,37.92
2023-05-05T22:59:01.863Z,37.80
2023-05-05T23:01:07.745Z,37.83
2023-05-05T23:03:13.031Z,40.70
2023-05-05T23:05:18.105Z,41.85
2023-05-05T23:07:24.355Z,41.22
2023-05-05T23:09:31.941Z,38.10
2023-05-05T23:11:38.839Z,38.50
2023-05-05T23:13:44.016Z,39.95
2023-05-05T23:15:49.140Z,40.70
2023-05-05T23:17:54.185Z,40.38
2023-05-05T23:19:59.152Z,38.13
2023-05-05T23:22:05.481Z,36.35
2023-05-05T23:24:10.661Z,34.92
2023-05-05T23:26:18.929Z,36.95
2023-05-05T23:28:23.950Z,39.15
2023-05-05T23:30:29.927Z,41.08
2023-05-05T23:32:35.246Z,40.00
2023-05-05T23:34:42.404Z,32.90
2023-05-05T23:36:47.412Z,40.20
2023-05-05T23:38:52.688Z,37.63
2023-05-05T23:40:57.950Z,38.17
2023-05-05T23:43:05.610Z,37.17
2023-05-05T23:45:12.723Z,44.65
2023-05-05T23:47:18.002Z,41.10
2023-05-05T23:49:24.227Z,41.03
2023-05-05T23:51:30.102Z,38.13
2023-05-05T23:53:35.895Z,40.35
2023-05-05T23:55:42.276Z,41.58
2023-05-05T23:57:47.319Z,39.22
2023-05-05T23:59:54.760Z,39.08
